sensor_id;sensor_type;location;lat;lon;timestamp;temperature;humidity
31695;DHT22;18289;51.330;4.946;2024-01-10T00:01:33;-3.40;99.90
31695;DHT22;18289;51.330;4.946;2024-01-10T00:03:59;-3.50;99.90
31695;DHT22;18289;51.330;4.946;2024-01-10T00:06:25;-3.60;99.90
31695;DHT22;18289;51.330;4.946;2024-01-10T00:08:51;-3.40;99.90
31695;DHT22;18289;51.330;4.946;2024-01-10T00:11:17;-3.50;99.90
31695;DHT22;18289;51.330;4.946;2024-01-10T00:13:42;-3.50;99.90
31695;DHT22;18289;51.330;4.946;2024-01-10T00:16:08;-3.60;99.90
31695;DHT22;18289;51.330;4.946;2024-01-10T00:18:34;-3.40;99.90
31695;DHT22;18289;51.330;4.946;2024-01-10T00:21:00;-3.50;99.90
31695;DHT22;18289;51.330;4.946;2024-01-10T00:23:26;-3.40;99.90
31695;DHT22;18289;51.330;4.946;2024-01-10T00:25:51;-3.30;99.90
31695;DHT22;18289;51.330;4.946;2024-01-10T00:28:17;-3.50;99.90
31695;DHT22;18289;51.330;4.946;2024-01-10T00:30:44;-3.50;99.90
31695;DHT22;18289;51.330;4.946;2024-01-10T00:33:10;-3.50;99.90
31695;DHT22;18289;51.330;4.946;2024-01-10T00:35:37;-3.40;99.90
31695;DHT22;18289;51.330;4.946;2024-01-10T00:38:03;-3.50;99.90
31695;DHT22;18289;51.330;4.946;2024-01-10T00:40:29;-3.60;99.90
31695;DHT22;18289;51.330;4.946;2024-01-10T00:42:54;-3.50;99.90
31695;DHT22;18289;51.330;4.946;2024-01-10T00:45:20;-3.60;99.90
31695;DHT22;18289;51.330;4.946;2024-01-10T00:47:48;-3.50;99.90
31695;DHT22;18289;51.330;4.946;2024-01-10T00:50:13;-3.50;99.90
31695;DHT22;18289;51.330;4.946;2024-01-10T00:52:39;-3.60;99.90
31695;DHT22;18289;51.330;4.946;2024-01-10T00:55:05;-3.70;99.90
31695;DHT22;18289;51.330;4.946;2024-01-10T00:57:31;-3.70;99.90
31695;DHT22;18289;51.330;4.946;2024-01-10T01:00:00;-3.60;99.90
31695;DHT22;18289;51.330;4.946;2024-01-10T01:02:25;-3.70;99.90
31695;DHT22;18289;51.330;4.946;2024-01-10T01:04:51;-3.70;99.90
31695;DHT22;18289;51.330;4.946;2024-01-10T01:07:17;-3.70;99.90
31695;DHT22;18289;51.330;4.946;2024-01-10T01:09:42;-3.70;99.90
31695;DHT22;18289;51.330;4.946;2024-01-10T01:12:08;-3.70;99.90
31695;DHT22;18289;51.330;4.946;2024-01-10T01:14:34;-3.70;99.90
31695;DHT22;18289;51.330;4.946;2024-01-10T01:16:59;-3.90;99.90
31695;DHT22;18289;51.330;4.946;2024-01-10T01:19:25;-3.80;99.90
31695;DHT22;18289;51.330;4.946;2024-01-10T01:21:51;-3.80;99.90
31695;DHT22;18289;51.330;4.946;2024-01-10T01:24:16;-3.80;99.90
31695;DHT22;18289;51.330;4.946;2024-01-10T01:26:42;-3.80;99.90
31695;DHT22;18289;51.330;4.946;2024-01-10T01:29:08;-3.90;99.90
31695;DHT22;18289;51.330;4.946;2024-01-10T01:31:34;-3.90;99.90
31695;DHT22;18289;51.330;4.946;2024-01-10T01:33:59;-4.00;99.90
31695;DHT22;18289;51.330;4.946;2024-01-10T01:36:25;-4.00;99.90
31695;DHT22;18289;51.330;4.946;2024-01-10T01:38:51;-4.00;99.90
31695;DHT22;18289;51.330;4.946;2024-01-10T01:41:16;-4.00;99.90
31695;DHT22;18289;51.330;4.946;2024-01-10T01:43:43;-3.80;99.90
31695;DHT22;18289;51.330;4.946;2024-01-10T01:46:10;-3.90;99.90
31695;DHT22;18289;51.330;4.946;2024-01-10T01:48:36;-4.00;99.90
31695;DHT22;18289;51.330;4.946;2024-01-10T01:51:05;-3.90;99.90
31695;DHT22;18289;51.330;4.946;2024-01-10T01:53:35;-4.10;99.90
31695;DHT22;18289;51.330;4.946;2024-01-10T01:56:02;-3.90;99.90
31695;DHT22;18289;51.330;4.946;2024-01-10T01:58:29;-4.00;99.90
31695;DHT22;18289;51.330;4.946;2024-01-10T02:00:55;-3.90;99.90
31695;DHT22;18289;51.330;4.946;2024-01-10T02:03:21;-4.00;99.90
31695;DHT22;18289;51.330;4.946;2024-01-10T02:05:47;-4.20;99.90
31695;DHT22;18289;51.330;4.946;2024-01-10T02:08:13;-4.10;99.90
31695;DHT22;18289;51.330;4.946;2024-01-10T02:10:39;-4.20;99.90
31695;DHT22;18289;51.330;4.946;2024-01-10T02:13:05;-4.30;99.90
31695;DHT22;18289;51.330;4.946;2024-01-10T02:15:31;-4.30;99.90
31695;DHT22;18289;51.330;4.946;2024-01-10T02:17:57;-4.10;99.90
31695;DHT22;18289;51.330;4.946;2024-01-10T02:20:22;-4.20;99.90
31695;DHT22;18289;51.330;4.946;2024-01-10T02:22:48;-4.00;99.90
31695;DHT22;18289;51.330;4.946;2024-01-10T02:25:16;-4.10;99.90
31695;DHT22;18289;51.330;4.946;2024-01-10T02:27:41;-4.00;99.90
31695;DHT22;18289;51.330;4.946;2024-01-10T02:30:08;-4.00;99.90
31695;DHT22;18289;51.330;4.946;2024-01-10T02:32:35;-4.10;99.90
31695;DHT22;18289;51.330;4.946;2024-01-10T02:35:01;-4.00;99.90
31695;DHT22;18289;51.330;4.946;2024-01-10T02:37:27;-4.00;99.90
31695;DHT22;18289;51.330;4.946;2024-01-10T02:39:52;-4.00;99.90
31695;DHT22;18289;51.330;4.946;2024-01-10T02:42:18;-4.10;99.90
31695;DHT22;18289;51.330;4.946;2024-01-10T02:44:44;-4.10;99.90
31695;DHT22;18289;51.330;4.946;2024-01-10T02:47:11;-4.00;99.90
31695;DHT22;18289;51.330;4.946;2024-01-10T02:49:37;-3.90;99.90
31695;DHT22;18289;51.330;4.946;2024-01-10T02:52:03;-4.00;99.90
31695;DHT22;18289;51.330;4.946;2024-01-10T02:54:29;-4.20;99.90
31695;DHT22;18289;51.330;4.946;2024-01-10T02:56:55;-4.20;99.90
31695;DHT22;18289;51.330;4.946;2024-01-10T02:59:21;-4.00;99.90
31695;DHT22;18289;51.330;4.946;2024-01-10T03:01:46;-4.10;99.90
31695;DHT22;18289;51.330;4.946;2024-01-10T03:04:12;-4.10;99.90
31695;DHT22;18289;51.330;4.946;2024-01-10T03:06:38;-4.10;99.90
31695;DHT22;18289;51.330;4.946;2024-01-10T03:09:03;-4.20;99.90
31695;DHT22;18289;51.330;4.946;2024-01-10T03:11:29;-4.20;99.90
31695;DHT22;18289;51.330;4.946;2024-01-10T03:14:03;-4.30;99.90
31695;DHT22;18289;51.330;4.946;2024-01-10T03:16:30;-4.20;99.90
31695;DHT22;18289;51.330;4.946;2024-01-10T03:18:56;-4.10;99.90
31695;DHT22;18289;51.330;4.946;2024-01-10T03:21:21;-4.20;99.90
31695;DHT22;18289;51.330;4.946;2024-01-10T03:23:54;-4.10;99.90
31695;DHT22;18289;51.330;4.946;2024-01-10T03:26:20;-4.20;99.90
31695;DHT22;18289;51.330;4.946;2024-01-10T03:28:46;-4.10;99.90
31695;DHT22;18289;51.330;4.946;2024-01-10T03:31:12;-4.20;99.90
31695;DHT22;18289;51.330;4.946;2024-01-10T03:33:37;-4.30;99.90
31695;DHT22;18289;51.330;4.946;2024-01-10T03:36:05;-4.20;99.90
31695;DHT22;18289;51.330;4.946;2024-01-10T03:38:31;-4.30;99.90
31695;DHT22;18289;51.330;4.946;2024-01-10T03:40:56;-4.10;99.90
31695;DHT22;18289;51.330;4.946;2024-01-10T03:43:22;-4.30;99.90
31695;DHT22;18289;51.330;4.946;2024-01-10T03:45:48;-4.10;99.90
31695;DHT22;18289;51.330;4.946;2024-01-10T03:48:13;-4.50;99.90
31695;DHT22;18289;51.330;4.946;2024-01-10T03:50:39;-4.30;99.90
31695;DHT22;18289;51.330;4.946;2024-01-10T03:53:05;-4.40;99.90
31695;DHT22;18289;51.330;4.946;2024-01-10T03:55:31;-4.30;99.90
31695;DHT22;18289;51.330;4.946;2024-01-10T03:57:57;-4.50;99.90
31695;DHT22;18289;51.330;4.946;2024-01-10T04:00:23;-4.40;99.90
31695;DHT22;18289;51.330;4.946;2024-01-10T04:02:50;-4.50;99.90
31695;DHT22;18289;51.330;4.946;2024-01-10T04:05:16;-4.30;99.90
31695;DHT22;18289;51.330;4.946;2024-01-10T04:07:42;-4.50;99.90
31695;DHT22;18289;51.330;4.946;2024-01-10T04:10:09;-4.30;99.90
31695;DHT22;18289;51.330;4.946;2024-01-10T04:12:38;-4.40;99.90
31695;DHT22;18289;51.330;4.946;2024-01-10T04:15:04;-4.30;99.90
31695;DHT22;18289;51.330;4.946;2024-01-10T04:17:30;-4.50;99.90
31695;DHT22;18289;51.330;4.946;2024-01-10T04:19:57;-4.30;99.90
31695;DHT22;18289;51.330;4.946;2024-01-10T04:22:26;-4.30;99.90
31695;DHT22;18289;51.330;4.946;2024-01-10T04:24:52;-4.30;99.90
31695;DHT22;18289;51.330;4.946;2024-01-10T04:27:18;-4.30;99.90
31695;DHT22;18289;51.330;4.946;2024-01-10T04:29:44;-4.30;99.90
31695;DHT22;18289;51.330;4.946;2024-01-10T04:32:10;-4.20;99.90
31695;DHT22;18289;51.330;4.946;2024-01-10T04:34:36;-4.20;99.90
31695;DHT22;18289;51.330;4.946;2024-01-10T04:37:01;-4.30;99.90
31695;DHT22;18289;51.330;4.946;2024-01-10T04:39:27;-4.40;99.90
31695;DHT22;18289;51.330;4.946;2024-01-10T04:41:53;-4.50;99.90
31695;DHT22;18289;51.330;4.946;2024-01-10T04:44:19;-4.30;99.90
31695;DHT22;18289;51.330;4.946;2024-01-10T04:46:44;-4.40;99.90
31695;DHT22;18289;51.330;4.946;2024-01-10T04:49:10;-4.60;99.90
31695;DHT22;18289;51.330;4.946;2024-01-10T04:51:36;-4.40;99.90
31695;DHT22;18289;51.330;4.946;2024-01-10T04:54:01;-4.40;99.90
31695;DHT22;18289;51.330;4.946;2024-01-10T04:56:27;-4.50;99.90
31695;DHT22;18289;51.330;4.946;2024-01-10T04:58:53;-4.40;99.90
31695;DHT22;18289;51.330;4.946;2024-01-10T05:01:19;-4.40;99.90
31695;DHT22;18289;51.330;4.946;2024-01-10T05:03:44;-4.50;99.90
31695;DHT22;18289;51.330;4.946;2024-01-10T05:06:11;-4.40;99.90
31695;DHT22;18289;51.330;4.946;2024-01-10T05:08:36;-4.50;99.90
31695;DHT22;18289;51.330;4.946;2024-01-10T05:11:02;-4.40;99.90
31695;DHT22;18289;51.330;4.946;2024-01-10T05:13:28;-4.50;99.90
31695;DHT22;18289;51.330;4.946;2024-01-10T05:15:54;-4.60;99.90
31695;DHT22;18289;51.330;4.946;2024-01-10T05:18:21;-4.50;99.90
31695;DHT22;18289;51.330;4.946;2024-01-10T05:20:49;-4.40;99.90
31695;DHT22;18289;51.330;4.946;2024-01-10T05:23:15;-4.60;99.90
31695;DHT22;18289;51.330;4.946;2024-01-10T05:28:11;-4.60;99.90
31695;DHT22;18289;51.330;4.946;2024-01-10T05:30:37;-4.50;99.90
31695;DHT22;18289;51.330;4.946;2024-01-10T05:33:03;-4.60;99.90
31695;DHT22;18289;51.330;4.946;2024-01-10T05:35:28;-4.80;99.90
31695;DHT22;18289;51.330;4.946;2024-01-10T05:37:54;-4.70;99.90
31695;DHT22;18289;51.330;4.946;2024-01-10T05:40:20;-4.60;99.90
31695;DHT22;18289;51.330;4.946;2024-01-10T05:42:46;-4.60;99.90
31695;DHT22;18289;51.330;4.946;2024-01-10T05:45:12;-4.80;99.90
31695;DHT22;18289;51.330;4.946;2024-01-10T05:47:37;-4.70;99.90
31695;DHT22;18289;51.330;4.946;2024-01-10T05:50:03;-4.80;99.90
31695;DHT22;18289;51.330;4.946;2024-01-10T05:52:32;-4.70;99.90
31695;DHT22;18289;51.330;4.946;2024-01-10T05:54:59;-4.60;99.90
31695;DHT22;18289;51.330;4.946;2024-01-10T05:57:27;-4.80;99.90
31695;DHT22;18289;51.330;4.946;2024-01-10T05:59:53;-4.70;99.90
31695;DHT22;18289;51.330;4.946;2024-01-10T06:02:22;-4.80;99.90
31695;DHT22;18289;51.330;4.946;2024-01-10T06:04:48;-4.90;99.90
31695;DHT22;18289;51.330;4.946;2024-01-10T06:07:13;-4.70;99.90
31695;DHT22;18289;51.330;4.946;2024-01-10T06:09:39;-4.80;99.90
31695;DHT22;18289;51.330;4.946;2024-01-10T06:12:06;-4.80;99.90
31695;DHT22;18289;51.330;4.946;2024-01-10T06:14:32;-4.90;99.90
31695;DHT22;18289;51.330;4.946;2024-01-10T06:16:58;-5.00;99.90
31695;DHT22;18289;51.330;4.946;2024-01-10T06:19:25;-4.80;99.90
31695;DHT22;18289;51.330;4.946;2024-01-10T06:21:51;-4.70;99.90
31695;DHT22;18289;51.330;4.946;2024-01-10T06:24:17;-4.70;99.90
31695;DHT22;18289;51.330;4.946;2024-01-10T06:26:43;-4.70;99.90
31695;DHT22;18289;51.330;4.946;2024-01-10T06:29:09;-4.70;99.90
31695;DHT22;18289;51.330;4.946;2024-01-10T06:31:34;-4.80;99.90
31695;DHT22;18289;51.330;4.946;2024-01-10T06:34:00;-4.90;99.90
31695;DHT22;18289;51.330;4.946;2024-01-10T06:36:26;-4.80;99.90
31695;DHT22;18289;51.330;4.946;2024-01-10T06:38:51;-4.70;99.90
31695;DHT22;18289;51.330;4.946;2024-01-10T06:41:17;-4.70;99.90
31695;DHT22;18289;51.330;4.946;2024-01-10T06:43:48;-4.90;99.90
31695;DHT22;18289;51.330;4.946;2024-01-10T06:46:14;-5.00;99.90
31695;DHT22;18289;51.330;4.946;2024-01-10T06:48:40;-5.00;99.90
31695;DHT22;18289;51.330;4.946;2024-01-10T06:51:10;-4.90;99.90
31695;DHT22;18289;51.330;4.946;2024-01-10T06:53:36;-4.80;99.90
31695;DHT22;18289;51.330;4.946;2024-01-10T06:56:02;-5.10;99.90
31695;DHT22;18289;51.330;4.946;2024-01-10T06:58:27;-4.90;99.90
31695;DHT22;18289;51.330;4.946;2024-01-10T07:00:53;-5.00;99.90
31695;DHT22;18289;51.330;4.946;2024-01-10T07:03:19;-5.00;99.90
31695;DHT22;18289;51.330;4.946;2024-01-10T07:05:44;-4.90;99.90
31695;DHT22;18289;51.330;4.946;2024-01-10T07:08:10;-4.80;99.90
31695;DHT22;18289;51.330;4.946;2024-01-10T07:10:36;-4.80;99.90
31695;DHT22;18289;51.330;4.946;2024-01-10T07:13:04;-4.90;99.90
31695;DHT22;18289;51.330;4.946;2024-01-10T07:15:30;-4.80;99.90
31695;DHT22;18289;51.330;4.946;2024-01-10T07:17:55;-4.80;99.90
31695;DHT22;18289;51.330;4.946;2024-01-10T07:20:21;-4.90;99.90
31695;DHT22;18289;51.330;4.946;2024-01-10T07:22:50;-4.90;99.90
31695;DHT22;18289;51.330;4.946;2024-01-10T07:25:17;-5.00;99.90
31695;DHT22;18289;51.330;4.946;2024-01-10T07:27:46;-4.80;99.90
31695;DHT22;18289;51.330;4.946;2024-01-10T07:30:11;-4.80;99.90
31695;DHT22;18289;51.330;4.946;2024-01-10T07:32:44;-4.90;99.90
31695;DHT22;18289;51.330;4.946;2024-01-10T07:35:10;-4.80;99.90
31695;DHT22;18289;51.330;4.946;2024-01-10T07:37:40;-4.90;99.90
31695;DHT22;18289;51.330;4.946;2024-01-10T07:40:07;-4.80;99.90
31695;DHT22;18289;51.330;4.946;2024-01-10T07:42:39;-4.80;99.90
31695;DHT22;18289;51.330;4.946;2024-01-10T07:45:07;-4.70;99.90
31695;DHT22;18289;51.330;4.946;2024-01-10T07:47:34;-4.90;99.90
31695;DHT22;18289;51.330;4.946;2024-01-10T07:50:06;-5.00;99.90
31695;DHT22;18289;51.330;4.946;2024-01-10T07:52:32;-4.80;99.90
31695;DHT22;18289;51.330;4.946;2024-01-10T07:54:58;-4.70;99.90
31695;DHT22;18289;51.330;4.946;2024-01-10T07:57:24;-4.80;99.90
31695;DHT22;18289;51.330;4.946;2024-01-10T07:59:50;-4.90;99.90
31695;DHT22;18289;51.330;4.946;2024-01-10T08:02:16;-4.80;99.90
31695;DHT22;18289;51.330;4.946;2024-01-10T08:04:42;-5.00;99.90
31695;DHT22;18289;51.330;4.946;2024-01-10T08:07:07;-4.80;99.90
31695;DHT22;18289;51.330;4.946;2024-01-10T08:09:33;-4.70;99.90
31695;DHT22;18289;51.330;4.946;2024-01-10T08:11:59;-4.60;99.90
31695;DHT22;18289;51.330;4.946;2024-01-10T08:14:26;-4.70;99.90
31695;DHT22;18289;51.330;4.946;2024-01-10T08:16:52;-4.70;99.90
31695;DHT22;18289;51.330;4.946;2024-01-10T08:19:24;-4.70;99.90
31695;DHT22;18289;51.330;4.946;2024-01-10T08:21:52;-4.50;99.90
31695;DHT22;18289;51.330;4.946;2024-01-10T08:24:19;-4.70;99.90
31695;DHT22;18289;51.330;4.946;2024-01-10T08:26:44;-4.40;99.90
31695;DHT22;18289;51.330;4.946;2024-01-10T08:29:10;-4.40;99.90
31695;DHT22;18289;51.330;4.946;2024-01-10T08:31:35;-4.30;99.90
31695;DHT22;18289;51.330;4.946;2024-01-10T08:34:01;-4.40;99.90
31695;DHT22;18289;51.330;4.946;2024-01-10T08:36:28;-4.30;99.90
31695;DHT22;18289;51.330;4.946;2024-01-10T08:38:54;-4.30;99.90
31695;DHT22;18289;51.330;4.946;2024-01-10T08:41:19;-4.40;99.90
31695;DHT22;18289;51.330;4.946;2024-01-10T08:43:48;-4.10;99.90
31695;DHT22;18289;51.330;4.946;2024-01-10T08:46:14;-4.00;99.90
31695;DHT22;18289;51.330;4.946;2024-01-10T08:48:40;-4.30;99.90
31695;DHT22;18289;51.330;4.946;2024-01-10T08:51:05;-4.10;99.90
31695;DHT22;18289;51.330;4.946;2024-01-10T08:53:31;-4.10;99.90
31695;DHT22;18289;51.330;4.946;2024-01-10T08:55:57;-4.10;99.90
31695;DHT22;18289;51.330;4.946;2024-01-10T08:58:23;-4.10;99.90
31695;DHT22;18289;51.330;4.946;2024-01-10T09:00:49;-4.00;99.90
31695;DHT22;18289;51.330;4.946;2024-01-10T09:03:15;-3.80;99.90
31695;DHT22;18289;51.330;4.946;2024-01-10T09:05:41;-3.60;99.90
31695;DHT22;18289;51.330;4.946;2024-01-10T09:08:07;-3.60;99.90
31695;DHT22;18289;51.330;4.946;2024-01-10T09:13:00;-3.30;99.90
31695;DHT22;18289;51.330;4.946;2024-01-10T09:15:26;-2.90;99.90
31695;DHT22;18289;51.330;4.946;2024-01-10T09:17:52;-2.60;99.90
31695;DHT22;18289;51.330;4.946;2024-01-10T09:20:18;-2.40;99.90
31695;DHT22;18289;51.330;4.946;2024-01-10T09:22:44;-2.20;99.90
31695;DHT22;18289;51.330;4.946;2024-01-10T09:25:10;-1.90;99.90
31695;DHT22;18289;51.330;4.946;2024-01-10T09:27:39;-1.80;99.90
31695;DHT22;18289;51.330;4.946;2024-01-10T09:30:07;-1.50;99.90
31695;DHT22;18289;51.330;4.946;2024-01-10T09:32:36;-1.30;99.90
31695;DHT22;18289;51.330;4.946;2024-01-10T09:35:02;-1.10;99.90
31695;DHT22;18289;51.330;4.946;2024-01-10T09:37:27;-1.10;99.90
31695;DHT22;18289;51.330;4.946;2024-01-10T09:39:53;-1.10;99.90
31695;DHT22;18289;51.330;4.946;2024-01-10T09:42:19;-1.30;99.90
31695;DHT22;18289;51.330;4.946;2024-01-10T09:44:51;-1.30;99.90
31695;DHT22;18289;51.330;4.946;2024-01-10T09:47:19;-1.30;99.90
31695;DHT22;18289;51.330;4.946;2024-01-10T09:49:45;-1.40;99.90
31695;DHT22;18289;51.330;4.946;2024-01-10T09:52:23;-1.50;99.90
31695;DHT22;18289;51.330;4.946;2024-01-10T09:54:56;-1.60;99.90
31695;DHT22;18289;51.330;4.946;2024-01-10T09:57:23;-1.10;99.90
31695;DHT22;18289;51.330;4.946;2024-01-10T09:59:50;-0.70;99.90
31695;DHT22;18289;51.330;4.946;2024-01-10T10:02:23;-0.50;99.90
31695;DHT22;18289;51.330;4.946;2024-01-10T10:05:12;-0.60;99.90
31695;DHT22;18289;51.330;4.946;2024-01-10T10:10:11;-0.80;99.90
31695;DHT22;18289;51.330;4.946;2024-01-10T10:12:51;-1.00;99.90
31695;DHT22;18289;51.330;4.946;2024-01-10T10:15:21;-0.80;99.90
31695;DHT22;18289;51.330;4.946;2024-01-10T10:17:49;-0.70;99.90
31695;DHT22;18289;51.330;4.946;2024-01-10T10:20:22;-0.40;99.90
31695;DHT22;18289;51.330;4.946;2024-01-10T10:23:09;-0.30;99.90
31695;DHT22;18289;51.330;4.946;2024-01-10T10:25:44;0.30;99.90
31695;DHT22;18289;51.330;4.946;2024-01-10T10:28:10;0.40;99.90
31695;DHT22;18289;51.330;4.946;2024-01-10T10:30:36;0.70;99.90
31695;DHT22;18289;51.330;4.946;2024-01-10T10:33:03;0.90;99.90
31695;DHT22;18289;51.330;4.946;2024-01-10T10:35:29;1.10;99.90
31695;DHT22;18289;51.330;4.946;2024-01-10T10:37:54;1.50;99.90
31695;DHT22;18289;51.330;4.946;2024-01-10T10:40:21;1.70;99.90
31695;DHT22;18289;51.330;4.946;2024-01-10T10:42:55;2.20;99.90
31695;DHT22;18289;51.330;4.946;2024-01-10T10:45:22;2.20;99.90
31695;DHT22;18289;51.330;4.946;2024-01-10T10:47:59;1.60;99.90
31695;DHT22;18289;51.330;4.946;2024-01-10T10:50:32;1.40;99.90
31695;DHT22;18289;51.330;4.946;2024-01-10T10:52:59;0.90;99.90
31695;DHT22;18289;51.330;4.946;2024-01-10T10:55:26;0.50;99.90
31695;DHT22;18289;51.330;4.946;2024-01-10T10:57:54;0.70;99.90
31695;DHT22;18289;51.330;4.946;2024-01-10T11:00:22;1.20;99.90
31695;DHT22;18289;51.330;4.946;2024-01-10T11:02:53;1.50;99.90
31695;DHT22;18289;51.330;4.946;2024-01-10T11:05:20;2.00;99.90
31695;DHT22;18289;51.330;4.946;2024-01-10T11:07:46;2.40;99.90
31695;DHT22;18289;51.330;4.946;2024-01-10T11:10:21;3.00;99.90
31695;DHT22;18289;51.330;4.946;2024-01-10T11:23:37;6.50;99.90
31695;DHT22;18289;51.330;4.946;2024-01-10T11:26:04;7.10;99.90
31695;DHT22;18289;51.330;4.946;2024-01-10T11:28:32;7.20;99.90
31695;DHT22;18289;51.330;4.946;2024-01-10T11:30:59;7.90;99.90
31695;DHT22;18289;51.330;4.946;2024-01-10T11:33:32;8.20;99.90
31695;DHT22;18289;51.330;4.946;2024-01-10T11:36:14;9.00;99.90
31695;DHT22;18289;51.330;4.946;2024-01-10T11:38:44;9.50;99.90
31695;DHT22;18289;51.330;4.946;2024-01-10T11:41:41;9.50;98.30
31695;DHT22;18289;51.330;4.946;2024-01-10T11:46:41;9.90;96.20
31695;DHT22;18289;51.330;4.946;2024-01-10T11:49:11;9.40;94.30
31695;DHT22;18289;51.330;4.946;2024-01-10T11:51:42;10.00;97.30
31695;DHT22;18289;51.330;4.946;2024-01-10T11:54:08;10.40;92.90
31695;DHT22;18289;51.330;4.946;2024-01-10T11:56:43;10.10;95.70
31695;DHT22;18289;51.330;4.946;2024-01-10T11:59:11;10.40;92.50
31695;DHT22;18289;51.330;4.946;2024-01-10T12:01:37;10.40;91.20
31695;DHT22;18289;51.330;4.946;2024-01-10T12:04:04;10.40;91.10
31695;DHT22;18289;51.330;4.946;2024-01-10T12:06:31;10.90;92.70
31695;DHT22;18289;51.330;4.946;2024-01-10T12:08:57;10.80;89.90
31695;DHT22;18289;51.330;4.946;2024-01-10T12:11:23;10.50;90.10
31695;DHT22;18289;51.330;4.946;2024-01-10T12:13:49;10.20;82.80
31695;DHT22;18289;51.330;4.946;2024-01-10T12:16:15;9.10;83.80
31695;DHT22;18289;51.330;4.946;2024-01-10T12:18:42;7.70;81.20
31695;DHT22;18289;51.330;4.946;2024-01-10T12:21:08;6.60;82.80
31695;DHT22;18289;51.330;4.946;2024-01-10T12:23:38;6.10;87.30
31695;DHT22;18289;51.330;4.946;2024-01-10T12:26:07;6.70;90.70
31695;DHT22;18289;51.330;4.946;2024-01-10T12:28:37;6.30;86.00
31695;DHT22;18289;51.330;4.946;2024-01-10T12:31:04;6.00;87.40
31695;DHT22;18289;51.330;4.946;2024-01-10T12:33:31;6.20;89.80
31695;DHT22;18289;51.330;4.946;2024-01-10T12:36:10;5.70;90.10
31695;DHT22;18289;51.330;4.946;2024-01-10T12:38:38;5.50;89.10
31695;DHT22;18289;51.330;4.946;2024-01-10T12:41:04;5.20;91.00
31695;DHT22;18289;51.330;4.946;2024-01-10T12:43:33;4.90;90.60
31695;DHT22;18289;51.330;4.946;2024-01-10T12:46:12;4.00;89.10
31695;DHT22;18289;51.330;4.946;2024-01-10T12:48:39;3.40;91.30
31695;DHT22;18289;51.330;4.946;2024-01-10T12:51:11;3.00;92.30
31695;DHT22;18289;51.330;4.946;2024-01-10T12:53:41;2.80;93.30
31695;DHT22;18289;51.330;4.946;2024-01-10T12:56:08;2.20;92.10
31695;DHT22;18289;51.330;4.946;2024-01-10T12:58:35;2.10;93.20
31695;DHT22;18289;51.330;4.946;2024-01-10T13:01:04;2.00;94.40
31695;DHT22;18289;51.330;4.946;2024-01-10T13:03:30;1.90;93.90
31695;DHT22;18289;51.330;4.946;2024-01-10T13:05:56;1.60;93.90
31695;DHT22;18289;51.330;4.946;2024-01-10T13:08:22;1.40;94.30
31695;DHT22;18289;51.330;4.946;2024-01-10T13:10:48;1.50;95.50
31695;DHT22;18289;51.330;4.946;2024-01-10T13:13:14;1.50;95.90
31695;DHT22;18289;51.330;4.946;2024-01-10T13:15:41;1.30;94.50
31695;DHT22;18289;51.330;4.946;2024-01-10T13:18:08;1.20;96.00
31695;DHT22;18289;51.330;4.946;2024-01-10T13:20:35;1.40;96.10
31695;DHT22;18289;51.330;4.946;2024-01-10T13:23:01;1.30;96.30
31695;DHT22;18289;51.330;4.946;2024-01-10T13:25:27;1.30;95.90
31695;DHT22;18289;51.330;4.946;2024-01-10T13:27:53;1.60;96.30
31695;DHT22;18289;51.330;4.946;2024-01-10T13:30:19;1.90;94.90
31695;DHT22;18289;51.330;4.946;2024-01-10T13:32:45;1.90;94.90
31695;DHT22;18289;51.330;4.946;2024-01-10T13:35:15;2.30;95.20
31695;DHT22;18289;51.330;4.946;2024-01-10T13:37:45;2.10;95.40
31695;DHT22;18289;51.330;4.946;2024-01-10T13:40:11;2.10;95.00
31695;DHT22;18289;51.330;4.946;2024-01-10T13:42:40;2.00;95.00
31695;DHT22;18289;51.330;4.946;2024-01-10T13:45:07;1.70;95.70
31695;DHT22;18289;51.330;4.946;2024-01-10T13:47:39;1.70;95.80
31695;DHT22;18289;51.330;4.946;2024-01-10T13:50:06;1.60;95.50
31695;DHT22;18289;51.330;4.946;2024-01-10T13:52:35;1.40;96.00
31695;DHT22;18289;51.330;4.946;2024-01-10T13:55:01;1.60;96.80
31695;DHT22;18289;51.330;4.946;2024-01-10T13:57:27;1.50;96.10
31695;DHT22;18289;51.330;4.946;2024-01-10T13:59:53;1.30;96.70
31695;DHT22;18289;51.330;4.946;2024-01-10T14:02:22;1.30;97.10
31695;DHT22;18289;51.330;4.946;2024-01-10T14:04:48;1.30;97.60
31695;DHT22;18289;51.330;4.946;2024-01-10T14:07:14;1.20;97.00
31695;DHT22;18289;51.330;4.946;2024-01-10T14:09:40;1.30;97.60
31695;DHT22;18289;51.330;4.946;2024-01-10T14:12:06;1.30;97.00
31695;DHT22;18289;51.330;4.946;2024-01-10T14:14:31;1.20;97.30
31695;DHT22;18289;51.330;4.946;2024-01-10T14:17:00;1.40;96.90
31695;DHT22;18289;51.330;4.946;2024-01-10T14:19:25;1.10;96.90
31695;DHT22;18289;51.330;4.946;2024-01-10T14:21:52;1.20;97.60
31695;DHT22;18289;51.330;4.946;2024-01-10T14:24:18;1.20;96.80
31695;DHT22;18289;51.330;4.946;2024-01-10T14:26:43;1.10;97.50
31695;DHT22;18289;51.330;4.946;2024-01-10T14:29:09;1.20;97.60
31695;DHT22;18289;51.330;4.946;2024-01-10T14:31:36;1.10;97.70
31695;DHT22;18289;51.330;4.946;2024-01-10T14:34:02;1.20;96.90
31695;DHT22;18289;51.330;4.946;2024-01-10T14:36:28;1.10;97.80
31695;DHT22;18289;51.330;4.946;2024-01-10T14:38:53;1.10;98.20
31695;DHT22;18289;51.330;4.946;2024-01-10T14:41:21;1.10;97.50
31695;DHT22;18289;51.330;4.946;2024-01-10T14:43:46;1.10;98.40
31695;DHT22;18289;51.330;4.946;2024-01-10T14:46:12;1.20;97.90
31695;DHT22;18289;51.330;4.946;2024-01-10T14:48:39;1.10;97.60
31695;DHT22;18289;51.330;4.946;2024-01-10T14:51:04;1.30;98.90
31695;DHT22;18289;51.330;4.946;2024-01-10T14:53:30;1.20;98.60
31695;DHT22;18289;51.330;4.946;2024-01-10T14:55:56;1.20;97.90
31695;DHT22;18289;51.330;4.946;2024-01-10T14:58:22;1.00;97.90
31695;DHT22;18289;51.330;4.946;2024-01-10T15:00:48;1.00;98.50
31695;DHT22;18289;51.330;4.946;2024-01-10T15:03:14;1.00;98.30
31695;DHT22;18289;51.330;4.946;2024-01-10T15:05:41;1.00;98.60
31695;DHT22;18289;51.330;4.946;2024-01-10T15:08:08;0.90;99.10
31695;DHT22;18289;51.330;4.946;2024-01-10T15:10:36;0.80;99.40
31695;DHT22;18289;51.330;4.946;2024-01-10T15:13:02;0.80;99.80
31695;DHT22;18289;51.330;4.946;2024-01-10T15:15:29;0.80;99.20
31695;DHT22;18289;51.330;4.946;2024-01-10T15:17:55;0.80;99.90
31695;DHT22;18289;51.330;4.946;2024-01-10T15:20:20;0.70;99.90
31695;DHT22;18289;51.330;4.946;2024-01-10T15:22:46;0.90;99.90
31695;DHT22;18289;51.330;4.946;2024-01-10T15:25:13;0.60;99.90
31695;DHT22;18289;51.330;4.946;2024-01-10T15:27:39;0.60;99.90
31695;DHT22;18289;51.330;4.946;2024-01-10T15:30:05;0.60;99.90
31695;DHT22;18289;51.330;4.946;2024-01-10T15:32:31;0.50;99.90
31695;DHT22;18289;51.330;4.946;2024-01-10T15:34:57;0.60;99.90
31695;DHT22;18289;51.330;4.946;2024-01-10T15:37:23;0.70;99.90
31695;DHT22;18289;51.330;4.946;2024-01-10T15:39:49;0.90;99.90
31695;DHT22;18289;51.330;4.946;2024-01-10T15:42:14;0.80;99.90
31695;DHT22;18289;51.330;4.946;2024-01-10T15:44:42;0.90;99.90
31695;DHT22;18289;51.330;4.946;2024-01-10T15:47:09;0.60;99.90
31695;DHT22;18289;51.330;4.946;2024-01-10T15:49:35;0.50;99.90
31695;DHT22;18289;51.330;4.946;2024-01-10T15:52:01;0.60;99.90
31695;DHT22;18289;51.330;4.946;2024-01-10T15:54:26;0.50;99.90